Time;durP1;ratioP1;P1;durP2;ratioP2;P2;SDS_P1;SDS_P2;PMS_P1;PMS_P2;Temp;Humidity;BMP_temperature;BMP_pressure;BME280_temperature;BME280_humidity;BME280_pressure;Samples;Min_cycle;Max_cycle;Signal;HPM_P1;HPM_P2
2022/01/10 00:01:14;;;;;;;6.65;2.30;;;17.50;48.80;;;;;;5070051;28;46046;-79
2022/01/10 00:03:51;;;;;;;5.05;2.22;;;17.50;48.60;;;;;;5068816;28;45248;-79
2022/01/10 00:06:22;;;;;;;5.47;2.00;;;17.50;48.80;;;;;;5070254;28;45467;-80
2022/01/10 00:09:05;;;;;;;2.53;1.70;;;17.50;49.20;;;;;;5069179;28;48701;-79
2022/01/10 00:11:40;;;;;;;4.53;1.90;;;17.50;49.50;;;;;;5069922;28;45420;-80
2022/01/10 00:14:08;;;;;;;4.13;2.33;;;17.50;49.60;;;;;;5070222;28;45219;-79
2022/01/10 00:16:36;;;;;;;4.47;2.20;;;17.50;49.80;;;;;;5068880;28;45128;-80
2022/01/10 00:19:10;;;;;;;6.22;2.60;;;17.50;49.40;;;;;;5069524;28;47329;-80
2022/01/10 00:21:41;;;;;;;4.82;2.20;;;17.50;49.20;;;;;;5067968;28;45284;-80
2022/01/10 00:24:13;;;;;;;5.40;2.30;;;17.50;49.60;;;;;;5066437;28;46726;-80
2022/01/10 00:26:41;;;;;;;4.15;1.90;;;17.50;48.70;;;;;;5069797;28;45240;-79
2022/01/10 00:29:10;;;;;;;3.28;1.85;;;17.50;48.30;;;;;;5066325;28;47577;-80
2022/01/10 00:31:40;;;;;;;5.40;1.92;;;17.50;47.70;;;;;;5068248;28;45178;-80
2022/01/10 00:34:11;;;;;;;3.90;2.00;;;17.50;47.40;;;;;;5067506;28;45215;-80
2022/01/10 00:36:40;;;;;;;5.45;2.20;;;17.40;47.40;;;;;;5051860;28;45458;-80
2022/01/10 00:39:08;;;;;;;3.80;2.17;;;17.40;47.30;;;;;;5052943;28;46494;-80
2022/01/10 00:41:37;;;;;;;3.72;1.80;;;17.50;47.50;;;;;;5069791;28;45167;-80
2022/01/10 00:44:16;;;;;;;5.03;2.30;;;17.40;47.00;;;;;;5066774;28;45173;-81
2022/01/10 00:46:45;;;;;;;4.80;2.40;;;17.40;46.60;;;;;;5069330;28;45491;-81
2022/01/10 00:49:15;;;;;;;3.85;2.10;;;17.50;47.00;;;;;;5067884;28;47917;-80
2022/01/10 00:51:46;;;;;;;4.88;2.20;;;17.40;49.90;;;;;;5069610;28;45326;-80
2022/01/10 00:54:16;;;;;;;3.72;1.90;;;17.40;49.40;;;;;;5067395;28;45254;-81
2022/01/10 00:56:45;;;;;;;4.57;2.00;;;17.40;48.90;;;;;;5068988;28;44826;-80
2022/01/10 00:59:19;;;;;;;6.93;2.35;;;17.50;49.00;;;;;;5068656;28;46547;-80
2022/01/10 01:01:49;;;;;;;5.30;2.10;;;17.50;50.10;;;;;;5069068;28;45781;-81
2022/01/10 01:04:27;;;;;;;5.45;2.53;;;17.50;48.90;;;;;;5067419;28;45598;-80
2022/01/10 01:06:58;;;;;;;3.88;2.05;;;17.50;48.80;;;;;;5067990;28;45266;-80
2022/01/10 01:09:31;;;;;;;3.75;2.17;;;17.50;48.30;;;;;;5063163;28;45285;-81
2022/01/10 01:12:13;;;;;;;4.65;2.30;;;17.50;48.70;;;;;;5064594;28;47520;-81
2022/01/10 01:14:56;;;;;;;4.47;2.15;;;17.50;47.10;;;;;;5066526;28;45228;-81
2022/01/10 01:20:29;;;;;;;4.35;2.28;;;17.40;46.20;;;;;;5061376;28;45306;-81
2022/01/10 01:25:42;;;;;;;4.30;2.20;;;17.40;46.20;;;;;;5067054;28;45561;-79
2022/01/10 01:28:09;;;;;;;5.03;2.03;;;17.40;46.10;;;;;;5068669;28;45273;-79
2022/01/10 01:30:36;;;;;;;3.85;2.00;;;17.40;45.80;;;;;;5069472;28;47726;-79
2022/01/10 01:33:04;;;;;;;5.32;2.40;;;17.40;46.00;;;;;;5067805;28;45484;-79
2022/01/10 01:35:39;;;;;;;4.32;2.00;;;17.40;46.00;;;;;;5068304;28;45171;-79
2022/01/10 01:38:21;;;;;;;5.78;2.28;;;17.40;45.90;;;;;;5067856;28;45441;-81
2022/01/10 01:41:24;;;;;;;6.15;2.10;;;17.40;46.50;;;;;;5068359;28;46643;-81
2022/01/10 01:43:55;;;;;;;5.20;2.30;;;17.40;47.10;;;;;;5069169;28;45531;-81
2022/01/10 01:46:29;;;;;;;4.25;2.05;;;17.40;47.00;;;;;;5067804;28;45168;-81
2022/01/10 01:48:56;;;;;;;4.38;2.60;;;17.40;47.30;;;;;;5069761;28;45397;-81
2022/01/10 01:51:28;;;;;;;3.95;2.03;;;17.40;47.20;;;;;;5068222;28;47177;-81
2022/01/10 01:54:00;;;;;;;4.25;2.15;;;17.40;47.10;;;;;;5066785;28;45264;-81
2022/01/10 01:56:28;;;;;;;4.35;2.30;;;17.40;47.60;;;;;;5068700;28;45183;-81
2022/01/10 01:58:57;;;;;;;5.82;2.30;;;17.40;46.90;;;;;;5069935;28;45186;-81
2022/01/10 02:01:26;;;;;;;4.30;2.05;;;17.40;46.50;;;;;;5067454;28;48350;-81
2022/01/10 02:03:56;;;;;;;4.43;2.10;;;17.40;47.20;;;;;;5067528;28;45273;-79
2022/01/10 02:06:26;;;;;;;6.32;2.40;;;17.40;45.90;;;;;;5068263;28;45321;-79
2022/01/10 02:08:54;;;;;;;5.40;2.10;;;17.40;46.00;;;;;;5067684;28;45254;-79
2022/01/10 02:11:21;;;;;;;5.65;2.45;;;17.40;46.10;;;;;;5060932;28;45701;-79
2022/01/10 02:14:04;;;;;;;4.60;2.22;;;17.40;45.90;;;;;;5069943;28;44814;-81
2022/01/10 02:16:40;;;;;;;8.20;3.08;;;17.40;45.80;;;;;;5069244;28;45375;-81
2022/01/10 02:19:10;;;;;;;6.50;2.50;;;17.40;45.80;;;;;;5065113;28;45386;-81
2022/01/10 02:21:44;;;;;;;7.95;2.33;;;17.40;45.80;;;;;;5067793;28;47800;-80
2022/01/10 02:24:13;;;;;;;3.75;1.83;;;17.40;46.00;;;;;;5069215;28;45222;-80
2022/01/10 02:26:41;;;;;;;3.80;2.22;;;17.40;46.10;;;;;;5073675;27;45219;-80
2022/01/10 02:29:10;;;;;;;6.60;2.35;;;17.40;46.30;;;;;;5066671;28;45220;-80
2022/01/10 02:31:41;;;;;;;4.95;2.35;;;17.40;46.90;;;;;;5067328;28;46430;-80
2022/01/10 02:34:10;;;;;;;5.70;2.60;;;17.40;46.70;;;;;;5067337;28;45503;-80
2022/01/10 02:36:43;;;;;;;5.63;2.15;;;17.40;46.60;;;;;;5057216;28;45274;-80
2022/01/10 02:39:12;;;;;;;4.45;2.30;;;17.40;46.60;;;;;;5064963;28;45223;-80
2022/01/10 02:41:46;;;;;;;5.15;2.17;;;17.40;46.40;;;;;;5064280;28;45445;-80
2022/01/10 02:44:22;;;;;;;6.05;2.22;;;17.40;46.20;;;;;;5067113;28;45287;-80
2022/01/10 02:46:50;;;;;;;4.82;2.20;;;17.40;45.30;;;;;;5066773;28;45224;-80
2022/01/10 02:49:27;;;;;;;4.60;2.22;;;17.40;44.90;;;;;;5064094;28;45447;-80
2022/01/10 02:51:58;;;;;;;6.20;2.40;;;17.40;44.70;;;;;;5067780;28;47505;-79
2022/01/10 02:54:27;;;;;;;5.22;2.15;;;17.40;44.80;;;;;;5067301;28;45361;-80
2022/01/10 02:56:58;;;;;;;3.33;2.10;;;17.40;44.80;;;;;;5065894;28;45174;-80
2022/01/10 02:59:27;;;;;;;5.75;2.15;;;17.40;44.70;;;;;;5068164;28;45190;-80
2022/01/10 03:01:57;;;;;;;4.97;2.22;;;17.40;44.40;;;;;;5065721;28;45809;-80
2022/01/10 03:04:28;;;;;;;4.90;2.35;;;17.30;44.70;;;;;;5065942;28;46126;-80
2022/01/10 03:07:15;;;;;;;4.38;2.33;;;17.30;44.30;;;;;;5067467;28;45495;-80
2022/01/10 03:09:44;;;;;;;5.38;2.10;;;17.30;44.20;;;;;;5055959;28;45584;-80
2022/01/10 03:12:15;;;;;;;5.88;2.33;;;17.30;44.30;;;;;;5066520;28;46842;-80
2022/01/10 03:14:44;;;;;;;6.22;2.22;;;17.30;44.70;;;;;;5063690;28;45401;-80
2022/01/10 03:17:20;;;;;;;4.28;1.92;;;17.40;45.30;;;;;;5064703;28;45495;-80
2022/01/10 03:19:48;;;;;;;3.30;1.92;;;17.40;44.80;;;;;;5066632;28;45431;-80
2022/01/10 03:22:19;;;;;;;4.18;2.38;;;17.40;45.20;;;;;;5050840;28;46595;-80
2022/01/10 03:24:49;;;;;;;5.70;2.20;;;17.40;45.20;;;;;;5062311;28;45261;-80
2022/01/10 03:27:20;;;;;;;5.93;2.30;;;17.40;45.70;;;;;;5060331;28;45436;-80
2022/01/10 03:29:50;;;;;;;3.85;2.00;;;17.40;45.10;;;;;;5045702;28;45414;-80
2022/01/10 03:32:29;;;;;;;6.82;2.50;;;17.40;44.50;;;;;;5066794;28;45456;-80
2022/01/10 03:35:01;;;;;;;5.25;2.28;;;17.30;43.80;;;;;;5071238;28;45294;-80
2022/01/10 03:37:33;;;;;;;8.27;2.28;;;17.30;43.80;;;;;;5060582;28;45310;-80
2022/01/10 03:40:02;;;;;;;3.78;2.13;;;17.30;44.00;;;;;;5067561;28;45247;-80
2022/01/10 03:42:33;;;;;;;4.47;2.40;;;17.30;43.60;;;;;;5066348;28;48100;-80
2022/01/10 03:45:02;;;;;;;4.80;2.50;;;17.30;43.70;;;;;;5069718;28;45225;-80
2022/01/10 03:47:31;;;;;;;4.88;2.50;;;17.30;43.40;;;;;;5070729;28;45287;-80
2022/01/10 03:50:00;;;;;;;4.50;2.50;;;17.30;43.40;;;;;;5069886;28;45179;-80
2022/01/10 03:52:29;;;;;;;5.63;2.35;;;17.30;43.80;;;;;;5070564;28;47198;-81
2022/01/10 03:55:01;;;;;;;5.47;2.78;;;17.30;47.20;;;;;;5071062;28;45338;-82
2022/01/10 03:57:29;;;;;;;5.38;2.30;;;17.30;47.10;;;;;;5061895;28;45287;-80
2022/01/10 03:59:59;;;;;;;4.63;2.40;;;17.30;46.10;;;;;;5072241;28;45233;-82
2022/01/10 04:02:32;;;;;;;6.07;2.25;;;17.30;45.80;;;;;;5069475;28;46684;-82
2022/01/10 04:05:01;;;;;;;3.88;2.20;;;17.30;45.60;;;;;;5073620;28;45277;-81
2022/01/10 04:07:37;;;;;;;3.55;2.10;;;17.30;45.60;;;;;;5068639;28;45207;-81
2022/01/10 04:10:07;;;;;;;4.22;2.30;;;17.30;45.20;;;;;;5070680;28;45545;-80
2022/01/10 04:12:39;;;;;;;6.07;2.47;;;17.30;44.60;;;;;;5068279;28;45435;-80
2022/01/10 04:15:10;;;;;;;8.07;2.65;;;17.40;44.80;;;;;;5070056;28;45209;-81
2022/01/10 04:17:38;;;;;;;3.25;2.08;;;17.40;43.90;;;;;;5066855;28;45373;-80
2022/01/10 04:20:09;;;;;;;5.35;2.47;;;17.30;43.40;;;;;;5069399;28;45426;-81
2022/01/10 04:22:38;;;;;;;3.92;2.17;;;17.30;43.60;;;;;;5069614;28;45640;-80
2022/01/10 04:25:13;;;;;;;5.68;2.50;;;17.30;43.60;;;;;;5069325;28;45201;-81
2022/01/10 04:27:44;;;;;;;3.95;2.38;;;17.30;43.80;;;;;;5067314;28;45237;-80
2022/01/10 04:30:14;;;;;;;4.32;2.28;;;17.30;43.70;;;;;;5068199;28;45394;-81
2022/01/10 04:32:44;;;;;;;3.40;2.03;;;17.30;43.70;;;;;;5069097;28;48090;-80
2022/01/10 04:35:13;;;;;;;3.03;1.90;;;17.30;43.70;;;;;;5068856;28;45439;-78
2022/01/10 04:37:42;;;;;;;6.55;2.58;;;17.30;43.80;;;;;;5068889;28;45350;-78
2022/01/10 04:40:11;;;;;;;3.55;2.10;;;17.30;43.70;;;;;;5064033;28;45200;-78
2022/01/10 04:42:39;;;;;;;6.63;2.35;;;17.30;43.90;;;;;;5069545;28;45272;-78
2022/01/10 04:45:09;;;;;;;4.13;2.30;;;17.30;43.80;;;;;;5068770;28;45209;-79
2022/01/10 04:47:38;;;;;;;7.57;2.50;;;17.30;44.90;;;;;;5064936;28;45242;-78
2022/01/10 04:50:28;;;;;;;3.63;2.05;;;17.30;44.10;;;;;;5066466;28;45503;-78
2022/01/10 04:53:05;;;;;;;4.65;2.28;;;17.40;43.70;;;;;;5066434;28;47818;-78
2022/01/10 04:55:33;;;;;;;3.60;1.90;;;17.30;44.10;;;;;;5068270;28;45251;-78
2022/01/10 04:58:01;;;;;;;3.63;2.10;;;17.40;44.30;;;;;;5069497;28;45220;-79
2022/01/10 05:00:28;;;;;;;5.55;2.35;;;17.40;44.30;;;;;;5069732;28;45179;-79
2022/01/10 05:02:56;;;;;;;4.15;2.30;;;17.40;44.00;;;;;;5068788;28;45699;-79
2022/01/10 05:05:24;;;;;;;6.93;2.40;;;17.40;43.70;;;;;;5065334;28;45443;-79
2022/01/10 05:07:51;;;;;;;4.47;2.28;;;17.30;43.70;;;;;;5065994;28;45225;-79
2022/01/10 05:10:21;;;;;;;4.35;2.20;;;17.30;44.00;;;;;;5068224;28;45345;-79
2022/01/10 05:12:48;;;;;;;4.38;2.33;;;17.30;43.80;;;;;;5062602;28;46889;-79
2022/01/10 05:17:51;;;;;;;4.32;2.10;;;17.30;44.00;;;;;;5167524;22;45265;-79
2022/01/10 05:20:18;;;;;;;5.63;2.22;;;17.30;44.10;;;;;;5058902;28;45893;-80
2022/01/10 05:22:46;;;;;;;5.28;2.05;;;17.30;44.00;;;;;;5064995;28;45354;-80
2022/01/10 05:25:12;;;;;;;4.40;2.10;;;17.30;44.10;;;;;;5068957;28;45648;-81
2022/01/10 05:27:40;;;;;;;4.10;2.05;;;17.30;44.10;;;;;;5066445;28;45380;-79
2022/01/10 05:30:09;;;;;;;5.07;1.88;;;17.30;44.20;;;;;;5067971;28;45373;-80
2022/01/10 05:32:36;;;;;;;4.57;2.00;;;17.30;44.60;;;;;;5068217;28;48219;-80
2022/01/10 05:35:05;;;;;;;3.50;1.98;;;17.30;45.10;;;;;;5069157;28;45543;-79
2022/01/10 05:37:36;;;;;;;4.40;2.40;;;17.30;45.10;;;;;;5067700;28;45343;-79
2022/01/10 05:40:04;;;;;;;4.43;2.08;;;17.30;45.00;;;;;;5064934;28;45500;-78
2022/01/10 05:42:39;;;;;;;4.95;2.20;;;17.30;44.10;;;;;;5064781;28;47249;-78
2022/01/10 05:45:16;;;;;;;6.15;2.42;;;17.30;43.80;;;;;;5063725;28;46623;-80
2022/01/10 05:47:45;;;;;;;4.50;2.03;;;17.40;43.80;;;;;;5063742;28;46114;-79
2022/01/10 05:50:17;;;;;;;6.40;2.00;;;17.40;43.90;;;;;;5060323;28;45341;-80
2022/01/10 05:52:44;;;;;;;5.50;2.00;;;17.40;44.00;;;;;;5069819;28;47543;-81
2022/01/10 05:55:13;;;;;;;5.90;2.20;;;17.30;44.00;;;;;;5040724;28;45525;-79
2022/01/10 05:57:43;;;;;;;4.22;1.90;;;17.30;44.30;;;;;;5058015;28;45244;-80
2022/01/10 06:00:13;;;;;;;6.43;2.22;;;17.30;44.40;;;;;;5058948;28;45301;-79
2022/01/10 06:02:41;;;;;;;5.05;2.38;;;17.40;44.70;;;;;;5068527;28;47167;-80
2022/01/10 06:05:09;;;;;;;6.03;2.15;;;17.40;44.70;;;;;;5071123;28;45168;-80
2022/01/10 06:07:38;;;;;;;3.80;1.63;;;17.30;44.60;;;;;;5071592;28;45344;-82
2022/01/10 06:10:09;;;;;;;5.82;2.03;;;17.30;44.40;;;;;;5062563;28;45412;-81
2022/01/10 06:12:48;;;;;;;3.65;1.83;;;17.30;45.20;;;;;;5051898;28;45820;-81
2022/01/10 06:15:19;;;;;;;3.40;1.77;;;17.30;45.90;;;;;;5070714;28;45334;-81
2022/01/10 06:17:48;;;;;;;5.30;2.15;;;17.30;46.20;;;;;;5067753;28;45382;-79
2022/01/10 06:20:17;;;;;;;4.03;2.03;;;17.30;46.30;;;;;;5066365;28;45251;-80
2022/01/10 06:22:48;;;;;;;3.80;2.13;;;17.30;45.50;;;;;;5071531;28;47233;-80
2022/01/10 06:25:18;;;;;;;5.18;2.40;;;17.30;45.20;;;;;;5066797;28;45595;-80
2022/01/10 06:27:45;;;;;;;3.28;1.75;;;17.30;45.30;;;;;;5064924;28;45456;-81
2022/01/10 06:30:13;;;;;;;6.25;1.92;;;17.30;46.00;;;;;;5069157;28;45429;-81
2022/01/10 06:32:42;;;;;;;2.30;1.60;;;17.30;46.30;;;;;;5061460;28;47043;-81
2022/01/10 06:35:11;;;;;;;3.50;1.58;;;17.30;46.70;;;;;;5063968;28;46152;-80
2022/01/10 06:37:39;;;;;;;3.75;2.20;;;17.30;46.90;;;;;;5038471;28;45370;-79
2022/01/10 06:40:08;;;;;;;3.47;1.92;;;17.30;46.90;;;;;;5057310;28;45298;-79
2022/01/10 06:42:41;;;;;;;4.63;2.10;;;17.30;46.00;;;;;;5043206;28;46478;-80
2022/01/10 06:45:10;;;;;;;4.90;1.65;;;17.30;45.60;;;;;;5056045;28;45594;-78
2022/01/10 06:47:39;;;;;;;4.13;2.08;;;17.30;45.50;;;;;;5058221;28;46747;-79
2022/01/10 06:50:10;;;;;;;4.10;1.80;;;17.30;45.50;;;;;;5062719;28;45748;-80
2022/01/10 06:52:38;;;;;;;4.38;2.10;;;17.30;46.40;;;;;;5042733;28;46117;-80
2022/01/10 06:55:06;;;;;;;4.03;1.95;;;17.30;46.90;;;;;;5060724;28;45641;-79
2022/01/10 06:57:34;;;;;;;26.60;2.75;;;17.30;47.10;;;;;;5051281;28;45181;-81
2022/01/10 07:00:03;;;;;;;7.60;1.85;;;17.40;48.90;;;;;;5066235;28;45292;-81
2022/01/10 07:02:30;;;;;;;3.45;1.80;;;16.70;48.70;;;;;;5070157;28;46501;-82
2022/01/10 07:05:00;;;;;;;7.40;1.98;;;17.10;50.10;;;;;;5079332;28;45144;-81
2022/01/10 07:07:30;;;;;;;3.83;1.90;;;17.90;50.70;;;;;;5080372;28;45243;-81
2022/01/10 07:10:01;;;;;;;3.55;1.75;;;17.30;48.10;;;;;;5079546;28;45556;-81
2022/01/10 07:12:31;;;;;;;5.03;2.03;;;17.30;47.40;;;;;;5081363;28;45453;-82
2022/01/10 07:15:01;;;;;;;7.20;2.20;;;17.50;48.30;;;;;;5082446;28;45156;-82
2022/01/10 07:17:33;;;;;;;5.65;2.22;;;17.30;47.80;;;;;;5081999;28;45133;-82
2022/01/10 07:20:02;;;;;;;7.07;2.17;;;17.30;47.00;;;;;;5083364;28;45431;-83
2022/01/10 07:22:33;;;;;;;5.80;2.08;;;17.30;48.60;;;;;;5081943;28;47391;-81
2022/01/10 07:25:05;;;;;;;4.47;1.90;;;17.60;46.00;;;;;;5080599;28;45164;-80
2022/01/10 07:27:33;;;;;;;5.35;2.10;;;17.30;45.90;;;;;;5077528;28;45403;-82
2022/01/10 07:30:02;;;;;;;6.15;2.70;;;17.20;45.60;;;;;;5067344;28;45192;-78
2022/01/10 07:32:34;;;;;;;5.85;2.95;;;17.20;45.00;;;;;;5073675;28;45266;-81
2022/01/10 07:35:10;;;;;;;4.80;2.45;;;17.50;45.40;;;;;;5066458;28;44877;-85
2022/01/10 07:37:47;;;;;;;4.50;2.60;;;17.30;44.70;;;;;;5084876;28;44760;-83
2022/01/10 07:40:17;;;;;;;5.65;2.55;;;17.30;47.60;;;;;;5078580;28;45466;-82
2022/01/10 07:42:47;;;;;;;4.03;2.53;;;17.40;50.00;;;;;;5082252;28;47306;-83
2022/01/10 07:45:21;;;;;;;4.18;2.28;;;17.60;44.60;;;;;;5074028;28;44801;-84
2022/01/10 07:47:50;;;;;;;4.38;2.65;;;17.30;44.20;;;;;;5077091;28;45211;-82
2022/01/10 07:50:18;;;;;;;5.95;2.80;;;17.40;46.20;;;;;;5070524;28;45143;-80
2022/01/10 07:52:48;;;;;;;4.78;2.75;;;17.30;43.80;;;;;;5058273;28;47165;-81
2022/01/10 07:55:17;;;;;;;4.47;2.20;;;17.40;45.20;;;;;;5080117;28;45279;-82
2022/01/10 07:57:51;;;;;;;5.15;2.60;;;17.40;46.00;;;;;;5076028;28;45207;-82
2022/01/10 08:00:19;;;;;;;7.78;2.60;;;17.30;47.30;;;;;;5076807;28;45250;-83
2022/01/10 08:02:50;;;;;;;4.70;2.35;;;17.50;49.20;;;;;;5080456;28;46876;-82
2022/01/10 08:05:21;;;;;;;5.97;2.90;;;17.40;44.80;;;;;;5080828;28;45260;-84
2022/01/10 08:07:54;;;;;;;4.43;2.45;;;17.40;47.80;;;;;;5083882;28;45185;-83
2022/01/10 08:10:29;;;;;;;5.15;2.92;;;17.40;44.20;;;;;;5086819;28;45073;-82
2022/01/10 08:12:58;;;;;;;4.80;2.60;;;17.40;45.10;;;;;;5083232;28;47150;-82
2022/01/10 08:15:30;;;;;;;5.15;2.47;;;17.60;46.00;;;;;;5086320;28;45354;-84
2022/01/10 08:17:57;;;;;;;6.22;2.70;;;17.40;44.40;;;;;;5079599;28;44775;-82
2022/01/10 08:20:27;;;;;;;5.57;2.88;;;17.40;44.40;;;;;;5080429;28;45275;-82
2022/01/10 08:23:04;;;;;;;5.53;2.88;;;17.30;44.30;;;;;;5081080;28;46390;-83
2022/01/10 08:25:33;;;;;;;5.65;2.70;;;17.40;44.70;;;;;;5079293;28;45411;-79
2022/01/10 08:28:01;;;;;;;5.22;2.65;;;17.30;44.30;;;;;;5076200;28;46507;-82
2022/01/10 08:30:30;;;;;;;5.53;2.70;;;17.10;47.90;;;;;;5080171;28;45121;-82
2022/01/10 08:33:03;;;;;;;5.72;2.90;;;17.40;44.40;;;;;;5080790;28;48563;-82
2022/01/10 08:35:31;;;;;;;5.05;2.72;;;17.40;44.70;;;;;;5081377;28;46351;-82
2022/01/10 08:38:05;;;;;;;7.68;2.60;;;17.40;45.70;;;;;;5082452;28;45372;-84
2022/01/10 08:40:38;;;;;;;5.55;2.60;;;17.40;45.00;;;;;;5081745;28;45086;-81
2022/01/10 08:43:10;;;;;;;5.47;2.42;;;17.40;44.60;;;;;;5081785;28;48435;-81
2022/01/10 08:45:42;;;;;;;7.13;2.55;;;17.30;45.70;;;;;;5062103;28;45394;-81
2022/01/10 08:48:19;;;;;;;5.95;2.47;;;17.30;45.20;;;;;;5080816;28;45374;-82
2022/01/10 08:50:50;;;;;;;4.55;2.22;;;17.30;46.00;;;;;;5082466;28;45417;-83
2022/01/10 08:53:21;;;;;;;4.10;2.40;;;15.30;45.00;;;;;;5079855;28;47549;-82
2022/01/10 08:55:48;;;;;;;4.45;2.30;;;17.20;45.90;;;;;;5079964;28;45104;-82
2022/01/10 08:58:19;;;;;;;5.80;2.45;;;17.20;45.70;;;;;;5077869;28;45201;-81
2022/01/10 09:00:48;;;;;;;5.93;2.65;;;17.20;45.40;;;;;;5071435;28;45342;-81
2022/01/10 09:03:16;;;;;;;5.80;2.20;;;17.20;45.00;;;;;;5065853;28;45499;-81
2022/01/10 09:05:43;;;;;;;5.90;2.42;;;17.20;44.90;;;;;;5076174;28;45524;-81
2022/01/10 09:08:11;;;;;;;4.63;2.28;;;17.20;45.50;;;;;;5074965;28;45354;-81
2022/01/10 09:10:43;;;;;;;5.57;2.50;;;17.20;44.30;;;;;;5071972;28;45327;-80
2022/01/10 09:13:17;;;;;;;6.40;2.80;;;17.20;44.40;;;;;;5074595;28;47394;-81
2022/01/10 09:15:45;;;;;;;5.10;2.70;;;17.20;44.30;;;;;;5073372;28;45329;-80
2022/01/10 09:18:12;;;;;;;6.43;2.45;;;17.20;44.20;;;;;;5070884;28;45235;-71
2022/01/10 09:20:39;;;;;;;10.13;2.30;;;17.20;47.10;;;;;;5071967;28;45280;-78
2022/01/10 09:23:12;;;;;;;4.38;1.90;;;17.30;50.30;;;;;;5084696;28;47350;-83
2022/01/10 09:25:49;;;;;;;6.78;2.30;;;17.20;52.00;;;;;;5083405;28;45114;-85
2022/01/10 09:28:30;;;;;;;6.28;2.03;;;17.30;52.50;;;;;;5078580;28;45290;-85
2022/01/10 09:31:07;;;;;;;10.05;2.83;;;17.40;56.10;;;;;;5063383;28;45255;-84
2022/01/10 09:33:53;;;;;;;10.45;2.92;;;17.30;52.90;;;;;;5081666;28;46432;-83
2022/01/10 09:36:21;;;;;;;8.07;2.63;;;17.30;53.60;;;;;;5073535;28;45233;-85
2022/01/10 09:38:55;;;;;;;6.97;2.97;;;17.00;53.00;;;;;;5057888;28;45590;-83
2022/01/10 09:41:36;;;;;;;4.43;2.55;;;17.20;51.40;;;;;;5080779;28;45117;-85
2022/01/10 09:44:08;;;;;;;6.57;3.25;;;17.40;54.70;;;;;;5063350;28;46205;-85
2022/01/10 09:46:37;;;;;;;5.38;3.28;;;17.20;52.50;;;;;;5064075;28;45250;-83
2022/01/10 09:49:07;;;;;;;4.55;2.45;;;17.10;54.50;;;;;;5082783;28;45191;-83
2022/01/10 09:51:36;;;;;;;5.25;2.95;;;19.30;57.70;;;;;;5076383;28;45288;-84
2022/01/10 09:54:06;;;;;;;4.93;2.55;;;17.10;53.30;;;;;;5090498;28;47453;-84
2022/01/10 09:56:37;;;;;;;4.55;2.42;;;17.20;52.70;;;;;;5082222;28;45148;-83
2022/01/10 09:59:07;;;;;;;7.78;2.47;;;17.40;56.10;;;;;;5081527;28;44747;-83
2022/01/10 10:01:44;;;;;;;5.82;2.75;;;17.60;52.10;;;;;;5064550;28;45482;-82
2022/01/10 10:04:13;;;;;;;7.53;3.00;;;17.60;51.80;;;;;;5081059;28;45304;-83
2022/01/10 10:06:45;;;;;;;5.07;2.72;;;17.40;56.50;;;;;;5064076;28;45181;-85
2022/01/10 10:09:18;;;;;;;5.00;2.40;;;17.20;52.30;;;;;;5080465;28;45169;-86
2022/01/10 10:14:52;;;;;;;3.47;2.60;;;17.50;55.50;;;;;;5075283;28;47414;-83
2022/01/10 10:17:20;;;;;;;5.85;2.60;;;17.20;57.20;;;;;;5078743;28;45334;-83
2022/01/10 10:22:30;;;;;;;5.45;2.38;;;17.20;60.10;;;;;;5086906;28;45632;-84
2022/01/10 10:24:58;;;;;;;4.75;2.38;;;17.10;58.40;;;;;;5074290;28;47582;-80
2022/01/10 10:27:27;;;;;;;5.38;2.38;;;17.10;59.30;;;;;;5074862;28;45345;-81
2022/01/10 10:30:00;;;;;;;5.95;2.60;;;17.00;57.50;;;;;;5089600;28;45519;-81
2022/01/10 10:32:35;;;;;;;4.90;2.50;;;17.00;57.50;;;;;;5059716;28;44806;-81
2022/01/10 10:35:08;;;;;;;6.43;2.60;;;17.10;57.90;;;;;;5061510;28;45417;-82
2022/01/10 10:37:37;;;;;;;4.53;2.30;;;17.10;57.70;;;;;;5076743;28;45227;-81
2022/01/10 10:40:09;;;;;;;3.78;2.28;;;17.10;57.30;;;;;;5077496;28;45193;-80
2022/01/10 10:42:41;;;;;;;5.88;2.75;;;17.10;57.20;;;;;;5068753;28;45311;-81
2022/01/10 10:45:11;;;;;;;8.48;2.70;;;17.10;58.70;;;;;;5065307;28;47094;-80
2022/01/10 10:47:45;;;;;;;4.95;2.30;;;17.00;58.30;;;;;;5070072;28;45343;-83
2022/01/10 10:50:15;;;;;;;3.90;2.35;;;17.00;60.10;;;;;;5077421;28;45421;-84
2022/01/10 10:53:09;;;;;;;6.32;2.40;;;17.10;59.60;;;;;;5077550;28;45160;-84
2022/01/10 10:55:47;;;;;;;3.40;1.92;;;17.10;61.20;;;;;;5069877;28;45070;-85
2022/01/10 10:58:18;;;;;;;3.42;1.95;;;17.40;60.00;;;;;;5078451;28;45104;-83
2022/01/10 11:00:46;;;;;;;5.18;2.53;;;17.40;65.30;;;;;;5080960;28;45215;-85
2022/01/10 11:06:04;;;;;;;9.18;2.63;;;17.60;56.60;;;;;;5074261;28;47702;-79
2022/01/10 11:08:38;;;;;;;8.77;2.83;;;17.40;57.00;;;;;;5061783;28;45160;-80
2022/01/10 11:16:58;;;;;;;5.13;2.25;;;17.70;62.00;;;;;;5081236;28;45732;-86
2022/01/10 11:19:42;;;;;;;9.50;3.05;;;17.80;60.50;;;;;;5050579;28;45256;-85
2022/01/10 11:22:17;;;;;;;7.57;2.50;;;18.20;59.20;;;;;;5080294;28;45250;-85
2022/01/10 11:24:57;;;;;;;7.65;2.08;;;20.20;63.10;;;;;;5067379;28;45144;-85
2022/01/10 11:27:52;;;;;;;5.25;2.40;;;17.90;59.10;;;;;;5080476;28;48184;-87
2022/01/10 11:33:48;;;;;;;6.50;2.70;;;17.70;57.90;;;;;;5075047;28;45157;-85
2022/01/10 11:43:03;;;;;;;8.50;2.58;;;17.80;59.20;;;;;;5043302;28;45034;-88
2022/01/10 11:45:57;;;;;;;6.00;2.40;;;17.80;58.70;;;;;;5089714;28;44724;-88
2022/01/10 11:52:30;;;;;;;6.10;2.58;;;17.30;58.60;;;;;;5067432;28;45352;-85
2022/01/10 11:58:18;;;;;;;5.40;2.47;;;17.60;58.80;;;;;;5074826;28;45069;-86
2022/01/10 12:36:25;;;;;;;5.47;2.47;;;18.10;57.80;;;;;;5050944;28;44772;-89
2022/01/10 12:42:37;;;;;;;4.90;2.10;;;18.10;59.60;;;;;;5050166;28;47274;-90
2022/01/10 13:01:17;;;;;;;5.25;2.67;;;18.10;59.20;;;;;;5071411;28;44688;-89
2022/01/10 13:11:44;;;;;;;7.35;2.30;;;17.70;59.30;;;;;;5012387;28;44745;-89
2022/01/10 13:21:41;;;;;;;2.70;1.58;;;17.40;58.90;;;;;;4991725;28;45661;-88
2022/01/10 13:37:58;;;;;;;4.93;1.80;;;19.40;60.10;;;;;;5051503;28;44782;-88
2022/01/10 14:03:25;;;;;;;4.38;1.80;;;17.70;58.40;;;;;;5070128;28;45765;-88
2022/01/10 14:12:23;;;;;;;3.92;2.00;;;17.70;58.60;;;;;;5065865;28;45479;-88
2022/01/10 14:18:42;;;;;;;5.35;2.22;;;17.70;58.10;;;;;;5071104;28;44830;-90
2022/01/10 14:24:07;;;;;;;4.15;2.20;;;17.90;59.40;;;;;;5069717;28;45488;-89
2022/01/10 14:30:24;;;;;;;4.85;2.30;;;17.90;59.00;;;;;;5087398;28;44735;-89
2022/01/10 14:33:23;;;;;;;3.65;1.98;;;16.90;57.10;;;;;;5074894;28;44834;-86
2022/01/10 14:39:39;;;;;;;3.78;2.25;;;17.70;57.60;;;;;;5091792;28;44720;-89
2022/01/10 14:42:28;;;;;;;4.05;2.00;;;17.80;57.80;;;;;;5054760;28;44566;-88
2022/01/10 14:48:29;;;;;;;4.93;2.35;;;17.80;58.70;;;;;;5068770;28;45025;-88
2022/01/10 14:51:42;;;;;;;4.45;2.00;;;17.80;58.10;;;;;;5071445;28;45295;-89
2022/01/10 15:14:11;;;;;;;5.15;2.33;;;17.60;56.90;;;;;;5050054;28;45016;-87
2022/01/10 16:21:15;;;;;;;6.18;2.80;;;17.90;60.10;;;;;;5050157;28;44774;-90
2022/01/10 16:23:53;;;;;;;6.97;2.90;;;17.90;58.40;;;;;;5053273;28;44728;-89
2022/01/10 16:29:46;;;;;;;4.85;2.33;;;17.60;57.40;;;;;;5051635;28;45125;-89
2022/01/10 16:36:00;;;;;;;6.13;2.83;;;18.00;56.40;;;;;;5070676;28;45260;-88
2022/01/10 16:39:27;;;;;;;5.72;2.60;;;17.70;56.70;;;;;;5073062;28;44724;-89
2022/01/10 16:57:31;;;;;;;9.10;3.67;;;17.50;53.10;;;;;;5061924;28;45280;-87
2022/01/10 17:00:03;;;;;;;7.25;3.50;;;17.50;52.80;;;;;;5065780;28;44723;-87
2022/01/10 17:02:33;;;;;;;8.07;2.92;;;17.40;57.20;;;;;;5047613;28;45262;-86
2022/01/10 17:05:02;;;;;;;5.80;2.95;;;17.40;58.20;;;;;;5063572;28;48225;-87
2022/01/10 17:07:30;;;;;;;7.82;3.28;;;17.30;59.50;;;;;;5056724;28;45292;-86
2022/01/10 17:10:00;;;;;;;6.60;3.25;;;17.30;58.20;;;;;;5059507;28;44834;-87
2022/01/10 17:12:32;;;;;;;9.30;3.33;;;17.40;59.60;;;;;;5077608;28;45271;-86
2022/01/10 17:15:06;;;;;;;6.82;3.10;;;17.70;61.00;;;;;;5061570;28;45376;-87
2022/01/10 17:17:36;;;;;;;8.73;3.90;;;18.10;60.70;;;;;;5064589;28;44769;-87
2022/01/10 17:20:27;;;;;;;6.72;4.35;;;17.20;55.40;;;;;;5071557;28;44789;-88
2022/01/10 17:22:57;;;;;;;12.65;4.80;;;17.30;53.50;;;;;;5067466;28;45108;-87
2022/01/10 17:25:53;;;;;;;8.88;4.53;;;17.20;59.70;;;;;;5035477;28;46496;-88
2022/01/10 17:28:36;;;;;;;11.32;5.35;;;17.30;53.10;;;;;;5066680;28;45288;-87
2022/01/10 17:31:08;;;;;;;8.57;4.55;;;17.20;53.50;;;;;;5046274;28;45313;-87
2022/01/10 17:33:45;;;;;;;8.20;4.60;;;17.20;56.20;;;;;;5066867;28;45359;-87
2022/01/10 17:36:27;;;;;;;13.45;5.30;;;17.40;52.30;;;;;;5053784;28;46774;-87
2022/01/10 17:39:01;;;;;;;10.70;5.57;;;17.40;52.00;;;;;;5066560;28;45130;-87
2022/01/10 17:44:25;;;;;;;10.10;5.65;;;17.30;51.70;;;;;;5053354;28;45155;-87
2022/01/10 17:49:53;;;;;;;11.65;5.78;;;17.20;51.40;;;;;;5050635;28;44756;-88
2022/01/10 17:55:34;;;;;;;8.13;4.65;;;17.20;52.50;;;;;;5060994;28;45052;-88
2022/01/10 17:58:09;;;;;;;9.52;4.90;;;16.00;55.40;;;;;;5048780;28;47255;-87